Carlos Gallardo

Olheiro-Chefe - Leon
7 Nov 2027
Domingo
Processo

Personalidade

Adaptabilidade (3) Ambição (19) Controvérsia (12) Lealdade (3) Pressão (15) Profissionalismo (18) Espírito Esportivo (13) Temperamento (3)

Perfil

Estilo de Treinamento Democrático
Licença Continental Pro
Determinação 11
Gestão de Pessoas 8
Motivação 9
Disciplina 7
Satisfação no Trabalho
100%
Fadiga
0%
Função Olheiro-Chefe
Salário 61.5K p/s
Contrato 14.03.2030

Desempenho

Comportamento Bom
Eficácia do Treinamento
44%
Desenvolvimento do Jogador
40%
Prevenção de Lesões
60%
Implementação Tática
65%

Monitorando agora

132
Jogador Clube Status Habilidade Confiança Observado Última observação Último voto
Victor Martinez Atletico Venezuela Ativo 92 / 95 40% 2 31.08.2027 -
Ignacio Pérez Cobresal Ativo 96 / 100 40% 1 31.08.2027 -
Felipe Faúndez O'Higgins Ativo 98 / 102 40% 1 31.08.2027 -
Juan Morán Godoy Cruz Ativo 111 / 118 40% 1 30.08.2027 -
Edwin Asamoah Berekum Chelsea Ativo 87 / 99 40% 1 30.08.2027 -
Octavio Ontivero Lanús Ativo 104 / 118 40% 1 30.08.2027 -
Keimer Sandoval Deportivo Cali Ativo 101 / 105 40% 2 25.08.2027 -
Martín Jiménez Audax Italiano Ativo 94 / 101 40% 1 25.08.2027 -
Onyeuche Ujunwa El-Kanemi Warriors Ativo 83 / 85 40% 1 25.08.2027 -
Godwin Oham Warri Wolves Ativo 80 / 101 40% 4 19.08.2027 -
Hosea Michael Remo Stars Ativo 92 / 90 40% 1 19.08.2027 -
Kaick FC Dallas Ativo 108 / 106 40% 1 19.08.2027 -
Rafael Vargas Cortulua Ativo 94 / 95 40% 4 16.08.2027 -
Mattia Mannini Juve Stabia Ativo 117 / 125 40% 3 16.08.2027 -
Yusi Alavés Ativo 138 / 135 40% 2 15.08.2027 -
Simone Kosijer Triestina Ativo 100 / 103 40% 1 15.08.2027 -
Dilan Villarreal Junior Ativo 88 / 104 40% 1 15.08.2027 -
Mbekezeli Mbokazi Chicago Fire Ativo 122 / 127 40% 2 13.08.2027 -
Nnamdi Obafemi Remo Stars Ativo 94 / 120 40% 2 13.08.2027 -
Davide Bartesaghi AC Milan Ativo 134 / 139 40% 1 12.08.2027 -
Jorge Salinas Racing Santander Ativo 132 / 131 40% 2 11.08.2027 -
Eliás Montiel Athletic Bilbao Ativo 133 / 144 40% 1 11.08.2027 -
Simón Pinto Palestino Ativo 100 / 113 40% 2 10.08.2027 -
Johan Cordoba Universitario Popayan Ativo 98 / 106 40% 1 10.08.2027 -
Elias Baum Eintracht Frankfurt Ativo 130 / 140 40% 1 10.08.2027 -
Teo Rodríguez Pagano San Lorenzo Ativo 114 / 127 40% 5 09.08.2027 -
Caleb Yirenkyi Coventry City Ativo 144 / 148 40% 2 09.08.2027 -
Christ Inao Oulaï Fiorentina Ativo 135 / 143 40% 1 09.08.2027 -
Salvador Blopá Sporting CP Ativo 121 / 126 40% 4 05.08.2027 -
Jenson Jones Peterborough United Ativo 97 / 99 40% 2 05.08.2027 -
Mats Egbring Heerenveen Ativo 102 / 105 40% 1 04.08.2027 -
Jonathan Bland Barnsley Ativo 109 / 110 40% 2 02.08.2027 -
Esteban de Lima Tacuarembo Ativo 89 / 91 40% 1 02.08.2027 -
T-Jay Parfitt Colchester United Ativo 92 / 96 40% 4 30.07.2027 -
Kazunari Kita Real Sociedad Ativo 103 / 107 40% 3 28.07.2027 -
Izan Merino Málaga Ativo 130 / 129 40% 3 28.07.2027 -
Ollie Scarles West Ham United Ativo 138 / 137 40% 1 28.07.2027 -
Miguel Figueiredo Benfica Ativo 114 / 122 40% 3 25.07.2027 -
Saba Kharebashvili Basaksehir Ativo 113 / 129 40% 1 25.07.2027 -
Wilmar Borja La Equidad Ativo 99 / 112 40% 3 22.07.2027 -
Dylan Lawlor Cardiff City Ativo 113 / 131 40% 3 21.07.2027 -
Ezra Mayers West Ham United Ativo 118 / 134 40% 5 20.07.2027 -
Jose Rodriguez La Equidad Ativo 95 / 100 40% 2 20.07.2027 -
Facundo Balatti Penarol Ativo 98 / 115 40% 1 19.07.2027 -
Alessandro Ventre Vis Pesaro Ativo 93 / 92 40% 2 13.07.2027 -
Alpha Touré FC Metz Ativo 113 / 122 40% 4 11.07.2027 -
Gady Beyuku Modena Ativo 112 / 118 40% 4 08.07.2027 -
Rhys Chadwick Peterborough United Ativo 104 / 103 40% 1 30.06.2027 -
Ismaël Baouf Cambuur Ativo 116 / 129 40% 1 29.06.2027 -
Alejandro Leiva Beitar Jerusalem Ativo 100 / 95 40% 2 21.06.2027 -
Lucas Jetten Cambuur Ativo 113 / 119 40% 1 21.06.2027 -
Martim Cunha Porto Rejeitado 104 / 113 40% 4 20.06.2027 Rejeitar
José Neto Alverca Ativo 115 / 124 40% 1 20.06.2027 -
Marco Oroná Antofagasta Ativo 100 / 108 40% 2 18.06.2027 -
Alexis Vossah Toulouse FC Ativo 113 / 133 40% 1 16.06.2027 -
Óliver Monterrey Ativo 141 / 141 76% 1 14.06.2027 Aprovar
Milan Roganović Partizan Ativo 112 / 117 40% 1 10.06.2027 -
Alessio Insignito Spezia Ativo 91 / 101 40% 1 10.06.2027 -
Jorge Díaz Toluca Ativo 100 / 107 76% 1 07.06.2027 Aprovar
Manuel Lopez Valledupar Ativo 96 / 100 40% 1 06.06.2027 -
Daniel Banjaqui Benfica Ativo 109 / 124 40% 1 06.06.2027 -
José Pachuca Puebla Ativo 108 / 115 40% 2 05.06.2027 -
Louis Leroux FC Nantes Ativo 122 / 135 40% 1 05.06.2027 -
Jan Bürger Preston Ativo 115 / 115 40% 1 04.06.2027 -
Pedro Vian Seewald Arzignano Ativo 98 / 100 40% 1 02.06.2027 -
Hlompho Billiat Free State Stars Ativo 89 / 88 40% 2 01.06.2027 -
Luis Reyes Monterrey Perdido 116 / 114 76% 1 01.06.2027 -
Marius Courcoul Olympique de Marseille Ativo 110 / 129 40% 1 01.06.2027 -
Martin Kern Puskas Akademia Ativo 105 / 115 40% 1 29.01.2027 -
Surprise Manthosi Polokwane City Ativo 91 / 87 40% 1 29.01.2027 -
James Dornelly Peterborough United Ativo 106 / 108 40% 1 28.01.2027 -
Axel Frugone Defensor Sporting Ativo 112 / 123 40% 2 27.01.2027 Mais informações
Juan Giménez Athletic Bilbao Ativo 121 / 119 40% 2 27.01.2027 -
Cheveyo Tsawa Club Brugge Ativo 113 / 124 40% 2 26.01.2027 Mais informações
Sean Fusire Sheffield Wednesday Rejeitado 98 / 102 40% 2 26.01.2027 Mais informações
Matteo Pérez Vinlöf Dinamo Zagreb Ativo 112 / 116 40% 1 21.01.2027 -
Joseph Jones Kryvbas Ativo 84 / 95 40% 1 20.01.2027 -
Thiago Helguera Braga Ativo 114 / 128 40% 1 20.01.2027 -
Eivind Helland Bologna Ativo 134 / 129 40% 1 20.01.2027 -
Ivan Shilenok Zenit Ativo 85 / 92 40% 3 19.01.2027 -
Hernán Acosta Veracruz Rejeitado 112 / 120 76% 1 18.01.2027 Rejeitar
Riley Owen Bristol Rovers Ativo 101 / 111 40% 1 17.01.2027 -
Santiago Fernández Talleres Ativo 113 / 129 40% 1 16.01.2027 -
Joe Knight Stevenage Ativo 95 / 105 40% 1 14.01.2027 -
Felipe Obradovich Rayo Vallecano Ativo 103 / 110 40% 1 14.01.2027 -
Rafael Guerrero Tigres Rejeitado 99 / 111 76% 1 11.01.2027 Rejeitar
Kyriani Sabbe Club Brugge Ativo 124 / 120 40% 1 11.01.2027 -
Daniel Kelly West Ham United Ativo 114 / 123 40% 1 11.01.2027 -
Carlos Sarabia Millonarios Ativo 107 / 111 40% 2 04.01.2027 -
Riyad Idrissi Cagliari Ativo 128 / 122 40% 1 03.01.2027 -
Pape Diong Westerlo Ativo 108 / 126 40% 1 02.01.2027 -
Saël Kumbedi VfL Wolfsburg Ativo 130 / 133 40% 1 02.01.2027 -
Stefan Džodić Almería Ativo 104 / 114 40% 1 01.01.2027 -
Facundo Di Biasi Gimnasia La Plata Ativo 114 / 120 40% 1 01.01.2027 -
Lucas Noubi Deportivo La Coruña Ativo 106 / 118 40% 1 01.01.2027 -
Cristopher Varela Deportivo La Guaira Ativo 119 / 110 40% 2 31.08.2026 Mais informações
Dominik Takáč Slovan Bratislava Ativo 133 / 117 40% 2 31.08.2026 Mais informações
Florián Monzón Atlas Ativo 120 / 131 40% 1 31.08.2026 -
Tobías Cervera SonderjyskE Ativo 112 / 111 40% 1 31.08.2026 -
Maurice Malone Minnesota United FC Ativo 118 / 117 40% 1 31.08.2026 -
Franko Kolić Istra 1961 Ativo 103 / 112 40% 1 31.08.2026 Mais informações
Marvin Keller Young Boys Ativo 140 / 137 40% 5 30.08.2026 -
Chris Brady Chicago Fire Ativo 130 / 131 40% 3 30.08.2026 -
Diego Romero Universitario Ativo 119 / 127 40% 1 30.08.2026 -
Dmytro Riznyk Shakhtar Ativo 138 / 135 40% 1 29.08.2026 -
Novak Mićović LA Galaxy Ativo 109 / 112 40% 2 28.08.2026 -
Héctor Holguín Santos Laguna Ativo 103 / 115 40% 1 28.08.2026 -
Thulani Erasmus Ajax Cape Town Ativo 100 / 100 40% 1 28.08.2026 -
John Pulskamp Sporting Kansas City Ativo 113 / 113 40% 1 27.08.2026 -
Dinko Horkaš Al Wasl Ativo 131 / 131 40% 1 26.08.2026 -
Lautaro Petruchi Malmo FF Ativo 102 / 106 40% 2 24.08.2026 -
Cristian Núñez Huracán Ativo 117 / 113 40% 2 23.08.2026 -
Justo Giani Universidad Catolica Ativo 115 / 125 40% 1 23.08.2026 -
Alejo Cruz Rapid Wien Ativo 114 / 116 40% 1 23.08.2026 -
Fernando Tapia Club America Ativo 130 / 129 40% 2 21.08.2026 -
Nahuel Manganelli Basel Ativo 116 / 115 40% 1 21.08.2026 -
Matthieu Epolo Standard Liege Ativo 111 / 128 40% 2 20.08.2026 -
Diego Enríquez Sporting Cristal Ativo 121 / 132 40% 1 20.08.2026 -
Brent Gabriel Zulte Waregem Ativo 115 / 111 40% 1 18.08.2026 -
Matías Dufour Sportivo Trinidense Ativo 103 / 112 40% 1 17.08.2026 -
Victor Ferraresi Llaneros Ativo 112 / 119 40% 1 13.08.2026 -
Matouš Trmal Teplice Ativo 109 / 111 40% 1 12.08.2026 -
Louis Munteanu DC United Ativo 124 / 124 40% 1 12.08.2026 -
Jonathan Dellarossa Viborg Ativo 122 / 116 40% 1 12.08.2026 -
Duk Atlas Ativo 113 / 116 40% 1 12.08.2026 -
Eric Ramírez Carabobo Ativo 112 / 110 40% 1 07.08.2026 -
Cheikh Sabaly Vancouver Whitecaps Ativo 118 / 118 40% 1 06.08.2026 -
Evidence Makgopa Orlando Pirates Ativo 104 / 118 40% 1 06.08.2026 -
Noah Allen Inter Miami CF Ativo 115 / 118 40% 1 04.08.2026 -
César Inga Universitario Ativo 126 / 128 40% 1 04.08.2026 -
Beau Reus Waasland-Beveren Ativo 124 / 120 40% 1 03.08.2026 -
Pablo Campos Levante Ativo 129 / 124 40% 1 01.08.2026 -